Time;durP1;ratioP1;P1;durP2;ratioP2;P2;SDS_P1;SDS_P2;PMS_P1;PMS_P2;Temp;Humidity;BMP_temperature;BMP_pressure;BME280_temperature;BME280_humidity;BME280_pressure;Samples;Min_cycle;Max_cycle;Signal;HPM_P1;HPM_P2
2023/11/14 00:00:37;;;;;;;21.20;13.60;;;;;;;4.79;100.00;100122.70;106233;1251;72748;-55
2023/11/14 00:03:05;;;;;;;17.70;13.00;;;;;;;4.76;100.00;100118.99;105659;1254;60457;-59
2023/11/14 00:05:34;;;;;;;18.20;13.50;;;;;;;4.74;100.00;100119.02;105758;1252;60335;-62
2023/11/14 00:08:01;;;;;;;21.30;13.20;;;;;;;4.72;100.00;100117.18;105947;1254;74287;-59
2023/11/14 00:10:28;;;;;;;21.30;13.30;;;;;;;4.69;100.00;100113.67;105955;1250;65903;-58
2023/11/14 00:12:58;;;;;;;19.20;13.10;;;;;;;4.67;100.00;100111.52;105932;1251;72667;-57
2023/11/14 00:15:26;;;;;;;20.00;13.50;;;;;;;4.65;100.00;100113.36;105882;1254;60585;-58
2023/11/14 00:17:54;;;;;;;20.20;13.40;;;;;;;4.64;100.00;100116.54;106170;1251;60440;-57
2023/11/14 00:20:21;;;;;;;17.70;12.30;;;;;;;4.63;100.00;100115.38;106200;1254;73826;-58
2023/11/14 00:22:48;;;;;;;20.60;14.20;;;;;;;4.63;100.00;100117.19;105965;1254;66123;-57
2023/11/14 00:25:15;;;;;;;20.20;13.70;;;;;;;4.62;100.00;100117.92;105945;1252;72525;-58
2023/11/14 00:27:42;;;;;;;20.20;13.70;;;;;;;4.61;100.00;100113.73;106015;1254;60521;-57
2023/11/14 00:30:10;;;;;;;21.20;14.10;;;;;;;4.59;100.00;100111.86;106361;1254;60417;-57
2023/11/14 00:32:37;;;;;;;18.60;12.80;;;;;;;4.58;100.00;100112.35;106110;1251;73788;-57
2023/11/14 00:35:05;;;;;;;20.30;13.40;;;;;;;4.55;100.00;100114.87;105758;1254;66077;-55
2023/11/14 00:37:33;;;;;;;18.60;12.70;;;;;;;4.52;100.00;100113.40;106083;1254;72668;-62
2023/11/14 00:40:00;;;;;;;19.90;13.00;;;;;;;4.51;100.00;100112.83;105848;1257;60446;-57
2023/11/14 00:42:27;;;;;;;21.10;13.00;;;;;;;4.49;100.00;100112.95;106160;1251;60326;-58
2023/11/14 00:44:54;;;;;;;19.10;13.30;;;;;;;4.46;100.00;100108.50;106047;1254;73740;-57
2023/11/14 00:47:21;;;;;;;17.80;12.30;;;;;;;4.43;100.00;100108.44;105867;1254;67044;-57
2023/11/14 00:49:48;;;;;;;21.50;13.60;;;;;;;4.44;100.00;100109.67;106050;1254;71167;-57
2023/11/14 00:52:16;;;;;;;18.90;12.10;;;;;;;4.45;100.00;100108.04;106252;1254;60357;-56
2023/11/14 00:54:43;;;;;;;18.60;12.50;;;;;;;4.45;100.00;100109.14;105901;1254;60546;-57
2023/11/14 00:57:10;;;;;;;19.10;12.20;;;;;;;4.44;100.00;100105.74;105888;1254;73525;-56
2023/11/14 00:59:37;;;;;;;18.50;12.00;;;;;;;4.44;100.00;100104.91;106111;1254;67163;-61
2023/11/14 01:02:06;;;;;;;16.90;11.20;;;;;;;4.43;100.00;100103.98;106357;1252;72795;-57
2023/11/14 01:04:37;;;;;;;17.00;11.30;;;;;;;4.43;100.00;100095.91;105990;1251;60888;-57
2023/11/14 01:07:05;;;;;;;17.80;12.30;;;;;;;4.43;100.00;100096.72;105544;1257;60447;-57
2023/11/14 01:09:33;;;;;;;16.90;12.30;;;;;;;4.42;100.00;100092.81;105904;1251;73785;-57
2023/11/14 01:12:00;;;;;;;20.90;12.40;;;;;;;4.40;100.00;100098.19;105926;1252;67190;-57
2023/11/14 01:14:28;;;;;;;17.60;11.90;;;;;;;4.38;100.00;100099.13;106202;1254;72479;-57
2023/11/14 01:16:55;;;;;;;18.30;12.10;;;;;;;4.34;100.00;100098.42;106486;1251;61233;-56
2023/11/14 01:19:22;;;;;;;16.60;10.70;;;;;;;4.30;100.00;100094.03;105694;1251;60317;-61
2023/11/14 01:21:49;;;;;;;18.40;12.00;;;;;;;4.24;100.00;100088.96;105646;1252;73919;-56
2023/11/14 01:24:19;;;;;;;18.60;11.70;;;;;;;4.16;100.00;100087.08;106144;1252;66244;-57
2023/11/14 01:26:46;;;;;;;17.40;12.40;;;;;;;4.07;100.00;100087.70;106091;1251;72460;-57
2023/11/14 01:29:13;;;;;;;19.10;12.70;;;;;;;3.98;100.00;100085.52;106158;1254;60411;-60
2023/11/14 01:31:40;;;;;;;19.10;12.20;;;;;;;3.88;100.00;100083.73;105993;1254;60348;-57
2023/11/14 01:34:07;;;;;;;20.10;11.80;;;;;;;3.81;100.00;100088.69;105913;1254;73910;-57
2023/11/14 01:36:37;;;;;;;18.40;12.50;;;;;;;3.73;100.00;100091.30;105769;1251;64939;-57
2023/11/14 01:39:06;;;;;;;17.30;12.50;;;;;;;3.67;100.00;100097.84;105931;1251;71633;-61
2023/11/14 01:41:33;;;;;;;18.60;12.10;;;;;;;3.62;100.00;100097.32;105956;1254;60412;-57
2023/11/14 01:44:00;;;;;;;19.90;12.40;;;;;;;3.56;100.00;100095.58;105906;1254;60391;-58
2023/11/14 01:46:28;;;;;;;18.10;11.60;;;;;;;3.50;100.00;100097.90;106418;1251;73076;-58
2023/11/14 01:48:55;;;;;;;17.70;11.70;;;;;;;3.44;100.00;100103.10;106166;1254;67257;-55
2023/11/14 01:51:23;;;;;;;19.40;12.30;;;;;;;3.39;100.00;100101.80;106090;1251;71675;-55
2023/11/14 01:53:51;;;;;;;20.60;13.00;;;;;;;3.39;100.00;100097.89;105903;1254;60444;-55
2023/11/14 01:56:19;;;;;;;18.30;12.00;;;;;;;3.39;100.00;100093.58;105899;1254;61063;-55
2023/11/14 01:58:46;;;;;;;17.50;12.60;;;;;;;3.39;100.00;100094.10;105844;1251;73556;-55
2023/11/14 02:01:13;;;;;;;20.30;12.00;;;;;;;3.38;100.00;100088.89;106039;1256;67700;-56
2023/11/14 02:03:40;;;;;;;19.70;13.10;;;;;;;3.40;100.00;100081.46;105705;1255;72384;-53
2023/11/14 02:06:09;;;;;;;17.80;12.00;;;;;;;3.40;100.00;100078.70;105788;1257;60544;-55
2023/11/14 02:08:38;;;;;;;18.40;13.30;;;;;;;3.40;100.00;100081.13;105951;1254;60367;-55
2023/11/14 02:11:05;;;;;;;17.00;11.80;;;;;;;3.40;100.00;100077.48;105799;1257;72498;-55
2023/11/14 02:13:33;;;;;;;17.30;11.90;;;;;;;3.40;100.00;100077.84;105647;1251;67249;-55
2023/11/14 02:16:00;;;;;;;16.20;11.70;;;;;;;3.45;100.00;100075.23;105860;1257;72562;-55
2023/11/14 02:18:27;;;;;;;19.00;11.60;;;;;;;3.48;100.00;100073.14;105860;1251;60446;-56
2023/11/14 02:20:54;;;;;;;18.70;12.50;;;;;;;3.52;100.00;100075.19;106116;1254;299450;-59
2023/11/14 02:23:21;;;;;;;17.90;12.20;;;;;;;3.56;100.00;100074.83;106003;1254;74011;-55
2023/11/14 02:25:48;;;;;;;18.60;14.10;;;;;;;3.61;100.00;100077.13;105643;1258;66172;-55
2023/11/14 02:28:15;;;;;;;19.20;12.10;;;;;;;3.61;100.00;100078.30;106259;1251;72704;-56
2023/11/14 02:30:42;;;;;;;18.30;12.10;;;;;;;3.64;100.00;100084.36;106078;1252;60972;-55
2023/11/14 02:33:09;;;;;;;18.80;12.90;;;;;;;3.65;100.00;100085.30;106219;1257;60347;-56
2023/11/14 02:35:37;;;;;;;20.30;13.20;;;;;;;3.69;100.00;100080.81;106041;1251;73650;-55
2023/11/14 02:38:04;;;;;;;19.50;12.90;;;;;;;3.71;100.00;100079.00;105978;1254;66965;-55
2023/11/14 02:40:31;;;;;;;21.20;13.10;;;;;;;3.71;100.00;100080.67;106015;1254;72899;-57
2023/11/14 02:42:58;;;;;;;21.20;12.00;;;;;;;3.70;100.00;100079.57;106282;1250;60533;-58
2023/11/14 02:45:26;;;;;;;19.20;12.50;;;;;;;3.68;100.00;100076.35;105675;1251;60467;-57
2023/11/14 02:47:54;;;;;;;21.10;12.60;;;;;;;3.62;100.00;100070.45;106042;1254;73808;-58
2023/11/14 02:50:29;;;;;;;19.10;13.00;;;;;;;3.57;100.00;100080.41;105864;1257;65723;-57
2023/11/14 02:52:58;;;;;;;20.90;12.60;;;;;;;3.50;100.00;100081.71;105818;1253;72462;-60
2023/11/14 02:55:26;;;;;;;17.80;12.00;;;;;;;3.47;100.00;100084.56;105866;1254;60345;-57
2023/11/14 02:57:53;;;;;;;19.40;13.10;;;;;;;3.46;100.00;100080.27;105944;1254;60414;-55
2023/11/14 03:00:21;;;;;;;19.20;12.60;;;;;;;3.48;100.00;100073.72;105956;1254;74302;-55
2023/11/14 03:02:48;;;;;;;19.70;12.70;;;;;;;3.50;100.00;100072.44;106000;1251;67773;-60
2023/11/14 03:05:15;;;;;;;20.20;13.30;;;;;;;3.50;100.00;100068.39;106065;1263;70743;-56
2023/11/14 03:07:42;;;;;;;20.00;13.80;;;;;;;3.48;100.00;100058.27;105920;1251;60523;-56
2023/11/14 03:10:10;;;;;;;21.20;13.50;;;;;;;3.45;100.00;100053.17;105894;1256;60501;-57
2023/11/14 03:12:37;;;;;;;25.80;18.40;;;;;;;3.41;100.00;100045.00;105980;1254;73882;-57
2023/11/14 03:15:04;;;;;;;26.80;17.70;;;;;;;3.33;100.00;100046.44;106716;1250;67255;-57
2023/11/14 03:17:31;;;;;;;23.60;15.40;;;;;;;3.23;100.00;100052.48;107053;1257;71460;-57
2023/11/14 03:19:59;;;;;;;20.70;15.20;;;;;;;3.09;100.00;100054.38;105816;1257;60369;-56
2023/11/14 03:22:27;;;;;;;21.80;15.10;;;;;;;2.97;100.00;100052.96;108364;1256;60529;-57
2023/11/14 03:24:54;;;;;;;19.20;13.50;;;;;;;2.85;100.00;100052.31;105808;1257;73806;-57
2023/11/14 03:27:21;;;;;;;21.90;14.80;;;;;;;2.75;100.00;100047.71;106070;1257;67189;-57
2023/11/14 03:29:48;;;;;;;18.90;13.20;;;;;;;2.66;100.00;100048.86;106088;1257;71110;-57
2023/11/14 03:32:15;;;;;;;20.80;13.30;;;;;;;2.59;100.00;100053.45;106072;1257;61027;-55
2023/11/14 03:34:43;;;;;;;19.40;13.30;;;;;;;2.53;100.00;100054.17;106228;1256;60427;-59
2023/11/14 03:37:10;;;;;;;19.50;14.00;;;;;;;2.48;100.00;100052.35;106034;1254;75147;-56
2023/11/14 03:39:40;;;;;;;22.90;15.00;;;;;;;2.43;100.00;100054.30;106303;1251;65895;-54
2023/11/14 03:42:07;;;;;;;21.00;14.40;;;;;;;2.40;100.00;100056.48;106249;1254;72325;-54
2023/11/14 03:44:34;;;;;;;21.60;13.20;;;;;;;2.38;100.00;100058.76;105910;1254;61088;-59
2023/11/14 03:47:02;;;;;;;21.90;13.30;;;;;;;2.35;100.00;100058.48;106434;1251;60705;-55
2023/11/14 03:49:29;;;;;;;21.50;13.30;;;;;;;2.31;100.00;100061.20;106139;1254;73652;-55
2023/11/14 03:51:56;;;;;;;19.50;13.30;;;;;;;2.29;100.00;100083.65;106272;1254;67783;-56
2023/11/14 03:54:24;;;;;;;21.20;13.80;;;;;;;2.33;100.00;100077.88;105841;1257;71600;-55
2023/11/14 03:56:51;;;;;;;22.90;14.90;;;;;;;2.41;100.00;100069.73;106078;1253;60453;-57
2023/11/14 03:59:18;;;;;;;18.80;12.20;;;;;;;2.44;100.00;100079.84;105971;1250;60434;-58
2023/11/14 04:01:44;;;;;;;19.70;11.20;;;;;;;2.46;100.00;100076.71;106324;1254;73713;-57
2023/11/14 04:04:12;;;;;;;18.20;11.30;;;;;;;2.50;100.00;100070.67;105948;1257;67072;-58
2023/11/14 04:06:39;;;;;;;20.60;12.70;;;;;;;2.55;100.00;100066.13;106339;1251;72633;-57
2023/11/14 04:09:06;;;;;;;21.40;13.00;;;;;;;2.56;100.00;100063.84;106083;1251;60901;-56
2023/11/14 04:11:34;;;;;;;17.10;11.30;;;;;;;2.51;100.00;100064.58;106320;1254;60680;-58
2023/11/14 04:14:01;;;;;;;18.30;11.50;;;;;;;2.47;100.00;100062.22;105971;1254;72475;-57
2023/11/14 04:16:28;;;;;;;17.10;11.90;;;;;;;2.44;100.00;100059.73;105797;1254;66164;-55
2023/11/14 04:18:56;;;;;;;20.10;13.60;;;;;;;2.42;100.00;100058.05;106072;1254;72713;-56
2023/11/14 04:21:23;;;;;;;20.30;13.70;;;;;;;2.38;100.00;100060.92;105751;1254;60465;-55
2023/11/14 04:23:50;;;;;;;20.50;14.10;;;;;;;2.31;100.00;100063.30;105846;1254;60342;-55
2023/11/14 04:26:18;;;;;;;19.50;14.20;;;;;;;2.21;100.00;100070.65;105784;1254;73583;-57
2023/11/14 04:28:45;;;;;;;19.40;13.70;;;;;;;2.12;100.00;100076.73;106198;1251;66023;-60
2023/11/14 04:31:12;;;;;;;20.80;14.00;;;;;;;2.05;100.00;100078.05;105867;1251;71441;-56
2023/11/14 04:33:39;;;;;;;23.80;18.10;;;;;;;1.99;100.00;100080.09;106003;1254;61084;-57
2023/11/14 04:36:07;;;;;;;24.00;15.90;;;;;;;1.93;100.00;100084.70;105790;1251;60431;-59
2023/11/14 04:38:34;;;;;;;24.80;17.80;;;;;;;1.85;100.00;100083.40;105577;1251;72644;-58
2023/11/14 04:41:02;;;;;;;25.00;17.20;;;;;;;1.79;100.00;100084.60;106115;1254;65723;-60
2023/11/14 04:43:29;;;;;;;24.90;17.60;;;;;;;1.75;100.00;100090.38;105636;1257;72685;-55
2023/11/14 04:45:56;;;;;;;25.90;17.50;;;;;;;1.68;100.00;100090.27;105827;1254;60892;-56
2023/11/14 04:48:23;;;;;;;27.00;17.90;;;;;;;1.62;100.00;100088.60;105806;1256;60559;-56
2023/11/14 04:50:50;;;;;;;22.70;15.80;;;;;;;1.60;100.00;100087.02;106254;1253;73828;-60
2023/11/14 04:53:17;;;;;;;25.80;16.20;;;;;;;1.60;100.00;100085.79;105985;1250;67295;-57
2023/11/14 04:55:44;;;;;;;23.80;15.50;;;;;;;1.61;100.00;100091.39;106212;1254;72759;-57
2023/11/14 04:58:11;;;;;;;24.10;15.30;;;;;;;1.55;100.00;100091.73;105855;1251;60370;-58
2023/11/14 05:00:39;;;;;;;22.70;15.90;;;;;;;1.51;100.00;100091.08;105626;1251;60440;-58
2023/11/14 05:03:06;;;;;;;27.30;18.10;;;;;;;1.46;100.00;100090.30;105641;1259;72737;-56
2023/11/14 05:05:34;;;;;;;24.00;17.00;;;;;;;1.43;100.00;100088.14;106202;1254;65658;-57
2023/11/14 05:08:01;;;;;;;24.00;16.30;;;;;;;1.40;100.00;100084.13;105655;1252;71269;-58
2023/11/14 05:10:29;;;;;;;23.00;15.90;;;;;;;1.42;100.00;100084.63;105870;1257;60549;-59
2023/11/14 05:12:56;;;;;;;23.20;15.50;;;;;;;1.51;100.00;100084.02;106097;1251;60450;-62
2023/11/14 05:15:23;;;;;;;22.70;15.30;;;;;;;1.68;100.00;100088.94;105994;1254;73893;-58
2023/11/14 05:17:50;;;;;;;20.00;13.50;;;;;;;2.03;100.00;100094.14;105740;1254;65725;-59
2023/11/14 05:20:17;;;;;;;18.70;12.70;;;;;;;2.57;100.00;100102.46;105616;1257;72520;-57
2023/11/14 05:22:45;;;;;;;20.20;12.50;;;;;;;3.12;100.00;100107.48;105849;1252;61121;-59
2023/11/14 05:25:12;;;;;;;18.50;12.50;;;;;;;3.74;100.00;100112.20;106164;1256;60417;-57
2023/11/14 05:27:39;;;;;;;16.40;11.20;;;;;;;4.34;100.00;100114.63;105955;1254;72603;-56
2023/11/14 05:30:11;;;;;;;17.30;11.90;;;;;;;4.64;100.00;100102.09;105746;1255;65765;-58
2023/11/14 05:32:38;;;;;;;17.80;11.50;;;;;;;4.69;100.00;100109.20;105562;1255;71462;-58
2023/11/14 05:35:05;;;;;;;17.70;11.80;;;;;;;4.72;100.00;100108.02;106319;1251;60689;-56
2023/11/14 05:37:33;;;;;;;18.80;11.70;;;;;;;4.87;100.00;100101.91;105762;1256;60565;-58
2023/11/14 05:40:00;;;;;;;17.00;12.30;;;;;;;4.95;100.00;100098.91;105677;1251;73859;-59
2023/11/14 05:42:27;;;;;;;18.60;11.00;;;;;;;5.23;100.00;100092.54;105810;1257;67220;-59
2023/11/14 05:44:54;;;;;;;14.70;10.70;;;;;;;5.72;100.00;100090.48;105792;1251;71469;-58
2023/11/14 05:47:21;;;;;;;19.90;11.20;;;;;;;6.44;100.00;100098.63;106099;1254;61880;-59
2023/11/14 05:49:48;;;;;;;16.90;11.50;;;;;;;7.27;100.00;100095.75;106418;1251;60335;-58
2023/11/14 05:52:15;;;;;;;15.50;10.60;;;;;;;7.99;100.00;100098.80;105867;1251;72564;-58
2023/11/14 05:54:42;;;;;;;16.20;12.10;;;;;;;8.61;100.00;100098.56;105800;1251;66981;-59
2023/11/14 05:57:09;;;;;;;16.00;12.20;;;;;;;9.23;100.00;100092.69;105729;1261;72812;-62
2023/11/14 05:59:37;;;;;;;15.80;11.90;;;;;;;9.64;100.00;100084.64;105811;1258;60433;-59
2023/11/14 06:02:07;;;;;;;16.70;12.90;;;;;;;9.64;100.00;100081.52;105772;1256;60427;-58
2023/11/14 06:04:36;;;;;;;15.70;11.60;;;;;;;9.44;100.00;100075.34;105846;1251;72666;-58
2023/11/14 06:07:03;;;;;;;16.80;13.00;;;;;;;9.17;100.00;100062.73;105828;1255;66951;-63
2023/11/14 06:09:30;;;;;;;15.80;12.80;;;;;;;8.86;100.00;100060.52;105727;1255;70760;-58
2023/11/14 06:11:57;;;;;;;18.90;13.70;;;;;;;8.59;100.00;100060.44;105769;1256;62006;-58
2023/11/14 06:14:24;;;;;;;17.80;13.40;;;;;;;8.33;100.00;100056.94;105921;1251;60683;-57
2023/11/14 06:16:51;;;;;;;18.30;14.50;;;;;;;8.04;100.00;100055.45;106081;1251;72933;-57
2023/11/14 06:19:18;;;;;;;18.30;14.30;;;;;;;7.73;100.00;100050.77;106158;1251;67336;-59
2023/11/14 06:21:47;;;;;;;18.10;14.80;;;;;;;7.43;100.00;100049.95;105589;1257;73123;-56
2023/11/14 06:24:14;;;;;;;18.80;14.10;;;;;;;7.13;100.00;100045.41;105778;1251;60556;-57
2023/11/14 06:26:41;;;;;;;17.60;13.10;;;;;;;6.90;100.00;100040.98;105864;1256;60530;-58
2023/11/14 06:29:08;;;;;;;18.50;13.50;;;;;;;6.66;100.00;100040.25;106191;1256;72697;-62
2023/11/14 06:31:35;;;;;;;15.10;12.00;;;;;;;6.44;100.00;100045.17;105821;1255;67890;-57
2023/11/14 06:34:03;;;;;;;18.40;13.60;;;;;;;6.30;100.00;100050.12;105811;1257;72411;-57
2023/11/14 06:36:31;;;;;;;18.70;13.70;;;;;;;6.17;100.00;100060.06;105862;1254;60542;-58
2023/11/14 06:38:58;;;;;;;18.60;13.10;;;;;;;6.02;100.00;100059.23;105927;1251;60347;-59
2023/11/14 06:41:25;;;;;;;14.70;11.00;;;;;;;5.88;100.00;100057.20;106046;1255;74388;-59
2023/11/14 06:43:52;;;;;;;16.80;11.60;;;;;;;5.78;100.00;100070.92;105830;1251;66936;-58
2023/11/14 06:46:20;;;;;;;18.60;12.60;;;;;;;5.71;100.00;100071.68;105775;1251;72715;-57
2023/11/14 06:48:47;;;;;;;19.00;12.90;;;;;;;5.66;100.00;100070.48;105860;1254;60408;-58
2023/11/14 06:51:14;;;;;;;19.30;12.50;;;;;;;5.61;100.00;100074.39;105839;1256;60414;-57
2023/11/14 06:53:41;;;;;;;18.00;11.50;;;;;;;5.58;100.00;100074.05;105845;1255;73754;-58
2023/11/14 06:56:12;;;;;;;18.00;12.40;;;;;;;5.55;100.00;100084.08;105879;1251;67191;-58
2023/11/14 06:58:40;;;;;;;18.30;11.40;;;;;;;5.54;100.00;100085.96;105752;1251;72640;-61
2023/11/14 07:01:09;;;;;;;18.20;11.40;;;;;;;5.55;100.00;100084.66;105533;1250;61153;-57
2023/11/14 07:03:37;;;;;;;18.70;11.60;;;;;;;5.55;100.00;100089.32;105826;1250;60440;-58
2023/11/14 07:06:05;;;;;;;19.40;13.00;;;;;;;5.56;100.00;100086.80;105956;1250;73668;-58
2023/11/14 07:08:32;;;;;;;16.70;11.70;;;;;;;5.58;100.00;100086.30;105890;1254;65639;-61
2023/11/14 07:10:59;;;;;;;19.40;13.30;;;;;;;5.63;100.00;100087.88;106255;1254;73257;-59
2023/11/14 07:13:27;;;;;;;20.30;13.40;;;;;;;5.67;100.00;100088.14;106019;1254;60884;-56
2023/11/14 07:15:54;;;;;;;19.00;13.30;;;;;;;5.74;100.00;100093.14;105772;1254;60530;-55
2023/11/14 07:18:21;;;;;;;18.30;12.70;;;;;;;5.82;100.00;100098.67;105798;1251;72632;-56
2023/11/14 07:20:48;;;;;;;19.80;13.60;;;;;;;5.90;100.00;100100.33;105785;1254;67562;-56
2023/11/14 07:23:16;;;;;;;20.90;12.70;;;;;;;5.97;100.00;100102.70;105924;1254;71441;-56
2023/11/14 07:25:44;;;;;;;18.80;13.30;;;;;;;6.03;100.00;100100.52;105774;1253;60706;-58
2023/11/14 07:28:12;;;;;;;23.00;14.40;;;;;;;6.10;100.00;100100.00;105764;1254;60520;-57
2023/11/14 07:30:39;;;;;;;22.80;14.30;;;;;;;6.15;100.00;100100.14;105841;1254;74501;-59
2023/11/14 07:33:08;;;;;;;22.40;17.20;;;;;;;6.19;100.00;100099.02;106202;1251;66216;-57
2023/11/14 07:35:37;;;;;;;22.30;15.50;;;;;;;6.25;100.00;100101.20;106220;1252;71759;-58
2023/11/14 07:38:05;;;;;;;19.60;13.30;;;;;;;6.30;100.00;100101.66;105944;1251;60411;-57
2023/11/14 07:40:32;;;;;;;21.60;13.00;;;;;;;6.32;100.00;100099.88;105899;1252;60480;-61
2023/11/14 07:43:00;;;;;;;20.60;12.70;;;;;;;6.34;100.00;100100.23;106015;1251;73693;-57
2023/11/14 07:45:31;;;;;;;18.90;12.00;;;;;;;6.36;100.00;100104.74;106623;1251;66946;-57
2023/11/14 07:47:58;;;;;;;18.60;12.90;;;;;;;6.37;100.00;100112.08;105689;1256;72453;-58
2023/11/14 07:50:26;;;;;;;18.50;11.60;;;;;;;6.39;100.00;100103.08;106219;1251;60312;-61
2023/11/14 07:52:53;;;;;;;18.00;11.20;;;;;;;6.40;100.00;100093.75;105682;1254;60427;-58
2023/11/14 07:55:20;;;;;;;17.30;11.40;;;;;;;6.43;100.00;100090.00;106382;1254;73516;-57
2023/11/14 07:57:47;;;;;;;16.50;10.40;;;;;;;6.46;100.00;100082.23;106002;1251;67115;-58
2023/11/14 08:00:16;;;;;;;14.80;9.40;;;;;;;6.48;100.00;100077.91;106014;1255;72422;-58
2023/11/14 08:02:44;;;;;;;13.90;8.50;;;;;;;6.51;100.00;100075.80;105751;1254;60412;-58
2023/11/14 08:05:11;;;;;;;15.50;9.90;;;;;;;6.54;100.00;100071.34;105992;1251;60393;-58
2023/11/14 08:07:38;;;;;;;18.30;10.80;;;;;;;6.56;100.00;100068.27;105962;1254;74687;-57
2023/11/14 08:10:06;;;;;;;15.20;10.10;;;;;;;6.57;100.00;100064.54;106005;1254;66989;-59
2023/11/14 08:12:33;;;;;;;25.60;16.90;;;;;;;6.59;100.00;100059.81;105893;1251;72366;-61
2023/11/14 08:15:00;;;;;;;27.80;19.10;;;;;;;6.62;100.00;100061.03;105556;1252;60517;-57
2023/11/14 08:17:28;;;;;;;23.30;16.00;;;;;;;6.59;100.00;100055.64;105796;1250;60752;-57
2023/11/14 08:19:55;;;;;;;25.40;16.10;;;;;;;6.57;100.00;100057.02;105840;1254;73804;-58
2023/11/14 08:22:23;;;;;;;21.20;14.70;;;;;;;6.59;100.00;100056.00;105940;1254;65831;-62
2023/11/14 08:24:50;;;;;;;21.40;16.60;;;;;;;6.63;100.00;100054.57;105763;1254;71112;-59
2023/11/14 08:27:17;;;;;;;29.50;22.70;;;;;;;6.67;100.00;100059.05;106201;1251;61417;-58
2023/11/14 08:29:48;;;;;;;32.10;24.10;;;;;;;6.71;100.00;100061.30;105752;1254;60334;-58
2023/11/14 08:32:18;;;;;;;30.20;20.60;;;;;;;6.75;100.00;100058.77;106101;1251;72385;-61
2023/11/14 08:34:45;;;;;;;27.50;19.50;;;;;;;6.82;100.00;100055.44;105788;1251;65656;-58
2023/11/14 08:37:12;;;;;;;25.20;17.80;;;;;;;6.95;100.00;100058.71;105783;1255;72472;-57
2023/11/14 08:39:44;;;;;;;22.30;15.90;;;;;;;7.13;100.00;100057.30;106259;1254;60448;-59
2023/11/14 08:42:11;;;;;;;26.40;17.00;;;;;;;7.33;100.00;100061.00;106181;1251;60414;-61
2023/11/14 08:44:38;;;;;;;29.10;19.70;;;;;;;7.56;100.00;100061.12;105903;1251;73301;-59
2023/11/14 08:47:06;;;;;;;27.20;17.60;;;;;;;7.81;100.00;100058.02;105822;1254;65954;-58
2023/11/14 08:49:33;;;;;;;20.70;14.10;;;;;;;8.04;100.00;100057.72;105747;1251;74245;-57
2023/11/14 08:52:00;;;;;;;20.60;13.80;;;;;;;8.17;100.00;100056.61;106416;1254;60425;-59
2023/11/14 08:54:28;;;;;;;19.10;13.80;;;;;;;8.22;100.00;100051.61;106050;1251;60424;-60
2023/11/14 08:56:55;;;;;;;19.20;13.20;;;;;;;8.23;100.00;100049.75;105779;1251;73908;-59
2023/11/14 08:59:22;;;;;;;21.60;14.30;;;;;;;8.25;100.00;100047.72;105666;1257;65786;-57
2023/11/14 09:01:49;;;;;;;24.70;15.10;;;;;;;8.34;100.00;100040.36;106044;1255;70102;-59
2023/11/14 09:04:18;;;;;;;23.70;15.50;;;;;;;8.60;100.00;100035.79;105541;1251;60399;-57
2023/11/14 09:06:45;;;;;;;24.80;16.30;;;;;;;9.08;100.00;100024.98;105957;1251;60309;-59
2023/11/14 09:09:12;;;;;;;19.40;13.50;;;;;;;9.71;100.00;100019.62;105675;1251;72513;-57
2023/11/14 09:11:39;;;;;;;19.20;14.20;;;;;;;10.38;100.00;100010.66;106271;1256;65894;-58
2023/11/14 09:14:08;;;;;;;20.20;13.60;;;;;;;11.00;100.00;100005.05;106170;1251;71536;-62
2023/11/14 09:16:35;;;;;;;17.80;13.00;;;;;;;11.60;100.00;99996.06;106017;1253;60353;-57
2023/11/14 09:19:04;;;;;;;20.10;13.50;;;;;;;12.09;100.00;99980.70;105842;1251;60809;-58
2023/11/14 09:21:31;;;;;;;19.20;13.40;;;;;;;12.48;100.00;99965.30;105727;1256;73946;-58
2023/11/14 09:23:59;;;;;;;17.70;13.30;;;;;;;12.82;100.00;99955.39;106408;1250;65983;-59
2023/11/14 09:26:26;;;;;;;16.90;12.20;;;;;;;13.18;100.00;99947.09;105753;1251;73754;-58
2023/11/14 09:28:53;;;;;;;16.40;12.50;;;;;;;13.52;100.00;99937.92;105777;1254;60562;-58
2023/11/14 09:31:20;;;;;;;17.50;12.40;;;;;;;13.79;100.00;99922.33;105848;1250;60619;-59
2023/11/14 09:33:48;;;;;;;16.10;11.30;;;;;;;14.10;100.00;99917.51;106024;1254;75410;-61
2023/11/14 09:36:15;;;;;;;10.80;7.80;;;;;;;14.40;100.00;99913.90;105875;1251;67405;-59
2023/11/14 09:38:42;;;;;;;12.10;7.70;;;;;;;14.60;100.00;99906.79;105761;1251;71100;-59
2023/11/14 09:41:09;;;;;;;11.80;7.80;;;;;;;14.73;100.00;99907.83;105615;1252;60673;-59
2023/11/14 09:43:37;;;;;;;15.00;9.30;;;;;;;14.80;100.00;99907.42;106099;1251;61065;-61
2023/11/14 09:46:04;;;;;;;14.60;7.90;;;;;;;14.93;100.00;99907.73;105795;1251;75179;-59
2023/11/14 09:48:31;;;;;;;8.30;6.20;;;;;;;15.07;100.00;99902.51;106293;1251;66068;-58
2023/11/14 09:50:59;;;;;;;6.40;4.40;;;;;;;15.27;100.00;99902.52;105790;1252;71909;-58
2023/11/14 09:53:29;;;;;;;7.90;5.40;;;;;;;15.46;100.00;99903.02;105568;1251;60543;-60
2023/11/14 09:55:57;;;;;;;9.40;6.10;;;;;;;15.57;100.00;99901.96;105740;1251;60402;-58
2023/11/14 09:58:24;;;;;;;6.80;5.10;;;;;;;15.55;100.00;99905.87;106131;1256;74130;-57
2023/11/14 10:00:51;;;;;;;10.10;8.20;;;;;;;15.44;100.00;99904.41;106082;1250;68720;-56
2023/11/14 10:03:21;;;;;;;8.10;5.60;;;;;;;15.45;100.00;99901.60;105782;1251;72409;-57
2023/11/14 10:05:48;;;;;;;18.20;14.30;;;;;;;15.42;100.00;99903.41;105743;1251;60459;-57
2023/11/14 10:08:15;;;;;;;35.80;30.50;;;;;;;15.11;100.00;99912.52;106026;1256;60479;-57
2023/11/14 10:11:11;;;;;;;9.30;6.70;;;;;;;14.56;100.00;99916.98;105752;1251;72830;-56
2023/11/14 10:13:39;;;;;;;11.30;10.10;;;;;;;13.86;100.00;99921.39;105527;1251;68803;-58
2023/11/14 10:16:22;;;;;;;60.30;53.60;;;;;;;13.31;100.00;99920.58;105588;1251;72849;-57
2023/11/14 10:18:50;;;;;;;47.50;40.70;;;;;;;12.88;100.00;99917.83;105497;1254;61976;-57
2023/11/14 10:21:30;;;;;;;26.80;21.10;;;;;;;12.63;100.00;99917.02;105609;1257;60312;-57
2023/11/14 10:24:02;;;;;;;7.70;4.60;;;;;;;12.36;100.00;99914.85;105451;1257;75492;-56
2023/11/14 10:26:29;;;;;;;5.40;3.40;;;;;;;12.16;100.00;99909.95;105518;1251;67501;-57
2023/11/14 10:29:00;;;;;;;7.10;4.00;;;;;;;11.97;100.00;99907.73;106055;1251;72584;-59
2023/11/14 10:31:37;;;;;;;6.00;4.10;;;;;;;11.85;100.00;99905.23;105854;1254;60814;-59
2023/11/14 10:34:05;;;;;;;5.30;3.40;;;;;;;11.74;100.00;99907.85;105880;1251;60325;-58
2023/11/14 10:36:48;;;;;;;8.10;4.70;;;;;;;11.65;100.00;99907.72;105738;1250;72722;-59
2023/11/14 10:39:15;;;;;;;8.10;4.80;;;;;;;11.59;100.00;99906.18;105724;1251;68636;-57
2023/11/14 10:41:42;;;;;;;5.40;3.60;;;;;;;11.56;100.00;99906.93;105603;1256;73187;-56
2023/11/14 10:44:10;;;;;;;6.70;4.20;;;;;;;11.48;100.00;99914.30;105608;1257;60622;-59
2023/11/14 10:46:37;;;;;;;6.00;3.80;;;;;;;11.41;100.00;99917.25;105828;1252;60650;-56
2023/11/14 10:49:09;;;;;;;6.80;4.30;;;;;;;11.36;100.00;99909.21;105965;1251;74349;-58
2023/11/14 10:51:36;;;;;;;8.30;5.70;;;;;;;11.31;100.00;99910.92;106183;1254;67252;-56
2023/11/14 10:54:06;;;;;;;8.60;6.30;;;;;;;11.25;100.00;99910.58;106262;1251;72664;-56
2023/11/14 10:56:36;;;;;;;7.10;4.60;;;;;;;11.15;100.00;99907.30;106267;1250;60545;-56
2023/11/14 10:59:16;;;;;;;5.80;3.90;;;;;;;11.07;100.00;99908.67;105918;1251;61763;-56
2023/11/14 11:01:47;;;;;;;6.70;4.60;;;;;;;11.00;100.00;99909.25;106323;1254;73828;-56
2023/11/14 11:04:16;;;;;;;7.10;4.80;;;;;;;10.93;100.00;99913.74;105921;1254;68811;-56